Time;durP1;ratioP1;P1;durP2;ratioP2;P2;SDS_P1;SDS_P2;PMS_P1;PMS_P2;Temp;Humidity;BMP_temperature;BMP_pressure;BME280_temperature;BME280_humidity;BME280_pressure;Samples;Min_cycle;Max_cycle;Signal;HPM_P1;HPM_P2
2022/07/04 00:01:56;;;;;;;106.13;63.55;;;;;;;;;;6261603;28;19970;-88
2022/07/04 00:04:58;;;;;;;71.00;59.42;;;;;;;;;;6259372;28;20049;-89
2022/07/04 00:07:59;;;;;;;167.73;105.32;;;;;;;;;;6259075;28;20288;-86
2022/07/04 00:11:02;;;;;;;10.73;7.18;;;;;;;;;;6255503;28;20041;-89
2022/07/04 00:14:04;;;;;;;5.97;4.53;;;;;;;;;;6260612;28;20053;-87
2022/07/04 00:17:06;;;;;;;9.63;7.75;;;;;;;;;;6250807;28;20053;-89
2022/07/04 00:20:09;;;;;;;277.20;168.75;;;;;;;;;;6258445;28;20053;-92
2022/07/04 00:23:11;;;;;;;10.82;6.80;;;;;;;;;;6257040;28;20056;-88
2022/07/04 00:26:14;;;;;;;15.85;11.68;;;;;;;;;;6255540;28;20061;-90
2022/07/04 00:29:16;;;;;;;5.95;4.30;;;;;;;;;;6255061;28;20049;-85
2022/07/04 00:32:17;;;;;;;5.53;3.70;;;;;;;;;;6258352;28;20053;-85
2022/07/04 00:35:19;;;;;;;5.93;3.45;;;;;;;;;;6255473;28;20038;-86
2022/07/04 00:38:21;;;;;;;6.40;3.00;;;;;;;;;;6254854;28;20237;-85
2022/07/04 00:41:24;;;;;;;4.47;3.22;;;;;;;;;;6255982;28;20055;-85
2022/07/04 00:44:25;;;;;;;3.83;3.00;;;;;;;;;;6253237;28;20091;-86
2022/07/04 00:47:27;;;;;;;7.13;3.92;;;;;;;;;;6255993;28;20041;-86
2022/07/04 00:50:29;;;;;;;4.22;2.90;;;;;;;;;;6257079;28;20336;-83
2022/07/04 00:53:31;;;;;;;7.03;3.88;;;;;;;;;;6257516;28;20096;-85
2022/07/04 00:56:36;;;;;;;5.60;2.70;;;;;;;;;;6257196;28;20053;-85
2022/07/04 00:59:38;;;;;;;5.65;3.13;;;;;;;;;;6253706;28;20045;-84
2022/07/04 01:02:39;;;;;;;5.13;3.13;;;;;;;;;;6255479;28;20064;-85
2022/07/04 01:05:43;;;;;;;5.40;2.78;;;;;;;;;;6254577;28;20271;-85
2022/07/04 01:08:45;;;;;;;4.13;3.03;;;;;;;;;;6254219;28;20089;-86
2022/07/04 01:11:49;;;;;;;6.70;3.00;;;;;;;;;;6254314;28;20092;-86
2022/07/04 01:14:51;;;;;;;3.95;2.88;;;;;;;;;;6253828;28;20359;-84
2022/07/04 01:17:53;;;;;;;6.40;3.20;;;;;;;;;;6246227;28;20049;-85
2022/07/04 01:20:56;;;;;;;6.63;2.50;;;;;;;;;;6254092;28;20060;-85
2022/07/04 01:23:58;;;;;;;5.28;2.60;;;;;;;;;;6251299;28;20795;-86
2022/07/04 01:26:59;;;;;;;2.88;2.58;;;;;;;;;;6253007;28;20045;-86
2022/07/04 01:30:01;;;;;;;5.03;2.78;;;;;;;;;;6255541;28;20107;-84
2022/07/04 01:33:03;;;;;;;4.32;2.28;;;;;;;;;;6254175;28;20056;-86
2022/07/04 01:36:06;;;;;;;4.95;3.00;;;;;;;;;;6254699;28;20049;-85
2022/07/04 01:39:07;;;;;;;5.45;2.58;;;;;;;;;;6251117;28;20098;-84
2022/07/04 01:42:09;;;;;;;6.35;2.35;;;;;;;;;;6252378;28;20079;-86
2022/07/04 01:45:12;;;;;;;4.90;2.50;;;;;;;;;;6253095;28;20099;-85
2022/07/04 01:48:14;;;;;;;4.82;2.53;;;;;;;;;;6254924;28;20131;-87
2022/07/04 01:51:17;;;;;;;3.15;2.17;;;;;;;;;;6254777;28;20100;-86
2022/07/04 01:54:19;;;;;;;;;;;;;;;;;;6257107;28;20463;-87
2022/07/04 01:57:20;;;;;;;78.68;62.35;;;;;;;;;;6255381;28;20196;-84
2022/07/04 02:03:44;;;;;;;171.35;132.85;;;;;;;;;;6251939;28;20324;-85
2022/07/04 02:06:47;;;;;;;5.43;3.67;;;;;;;;;;6250271;28;20038;-83
2022/07/04 02:09:48;;;;;;;;;;;;;;;;;;6259070;28;20091;-83
2022/07/04 02:13:02;;;;;;;6.65;2.50;;;;;;;;;;6254334;28;19950;-82
2022/07/04 02:16:04;;;;;;;3.72;2.22;;;;;;;;;;6250685;28;20065;-82
2022/07/04 02:19:06;;;;;;;3.40;2.50;;;;;;;;;;6252820;28;20362;-81
2022/07/04 02:22:09;;;;;;;5.47;1.98;;;;;;;;;;6252634;28;20332;-83
2022/07/04 02:25:11;;;;;;;10.68;2.35;;;;;;;;;;6252889;28;20060;-83
2022/07/04 02:28:13;;;;;;;2.63;2.20;;;;;;;;;;6250260;28;20046;-81
2022/07/04 02:31:14;;;;;;;3.58;2.25;;;;;;;;;;6254587;28;20280;-83
2022/07/04 02:34:16;;;;;;;3.38;2.00;;;;;;;;;;6253888;28;20492;-81
2022/07/04 02:37:19;;;;;;;2.65;1.95;;;;;;;;;;6249430;28;20046;-81
2022/07/04 02:40:21;;;;;;;;;;;;;;;;;;6252976;28;20053;-82
2022/07/04 02:43:22;;;;;;;3.15;2.05;;;;;;;;;;6249952;28;19925;-83
2022/07/04 02:46:24;;;;;;;3.90;2.22;;;;;;;;;;6253975;28;20058;-81
2022/07/04 02:49:26;;;;;;;6.50;2.30;;;;;;;;;;6256822;28;20051;-83
2022/07/04 02:52:29;;;;;;;4.47;1.95;;;;;;;;;;6251754;28;20057;-83
2022/07/04 02:55:31;;;;;;;4.38;2.40;;;;;;;;;;6253887;28;20049;-82
2022/07/04 02:58:33;;;;;;;3.50;2.10;;;;;;;;;;6249610;28;20232;-82
2022/07/04 03:01:35;;;;;;;2.65;2.00;;;;;;;;;;6252800;28;20041;-82
2022/07/04 03:04:39;;;;;;;2.17;1.92;;;;;;;;;;6253360;28;20057;-82
2022/07/04 03:07:42;;;;;;;2.63;2.08;;;;;;;;;;6248975;28;20084;-83
2022/07/04 03:10:44;;;;;;;2.85;1.67;;;;;;;;;;6250883;28;20053;-83
2022/07/04 03:13:46;;;;;;;3.92;1.95;;;;;;;;;;6252290;28;20095;-82
2022/07/04 03:16:47;;;;;;;4.05;2.17;;;;;;;;;;6247796;28;20095;-82
2022/07/04 03:19:49;;;;;;;2.75;1.77;;;;;;;;;;6250184;28;20317;-82
2022/07/04 03:22:54;;;;;;;2.70;1.98;;;;;;;;;;6248151;28;20061;-82
2022/07/04 03:25:56;;;;;;;4.63;2.15;;;;;;;;;;6252235;28;20280;-82
2022/07/04 03:28:58;;;;;;;2.42;1.80;;;;;;;;;;6251739;28;20053;-82
2022/07/04 03:32:00;;;;;;;4.07;2.42;;;;;;;;;;6254316;28;20054;-81
2022/07/04 03:35:02;;;;;;;3.10;1.88;;;;;;;;;;6248282;28;20061;-82
2022/07/04 03:38:05;;;;;;;2.42;1.80;;;;;;;;;;6250522;28;20052;-82
2022/07/04 03:41:06;;;;;;;;;;;;;;;;;;6254139;28;20366;-81
2022/07/04 03:44:08;;;;;;;2.10;1.70;;;;;;;;;;6255036;28;20105;-82
2022/07/04 03:47:09;;;;;;;2.42;1.77;;;;;;;;;;6256543;28;20092;-82
2022/07/04 03:50:11;;;;;;;6.10;1.80;;;;;;;;;;6255402;28;20053;-82
2022/07/04 03:53:15;;;;;;;7.43;1.95;;;;;;;;;;6255848;28;20057;-82
2022/07/04 03:56:18;;;;;;;4.75;1.70;;;;;;;;;;6258644;28;20352;-82
2022/07/04 03:59:19;;;;;;;2.83;1.73;;;;;;;;;;6256929;28;20048;-81
2022/07/04 04:02:21;;;;;;;3.22;2.13;;;;;;;;;;6255753;28;20053;-82
2022/07/04 04:05:28;;;;;;;4.88;1.80;;;;;;;;;;6253151;28;20332;-83
2022/07/04 04:08:32;;;;;;;3.20;1.60;;;;;;;;;;6251658;28;20080;-81
2022/07/04 04:11:33;;;;;;;;;;;;;;;;;;6256704;28;20350;-82
2022/07/04 04:14:35;;;;;;;3.35;1.65;;;;;;;;;;6255973;28;19923;-80
2022/07/04 04:17:36;;;;;;;2.80;1.80;;;;;;;;;;6252472;28;20049;-82
2022/07/04 04:20:38;;;;;;;3.33;2.00;;;;;;;;;;6256582;28;20058;-82
2022/07/04 04:23:42;;;;;;;3.13;1.60;;;;;;;;;;6259221;28;20057;-82
2022/07/04 04:26:44;;;;;;;2.78;2.22;;;;;;;;;;6253418;28;20057;-83
2022/07/04 04:29:46;;;;;;;4.47;1.73;;;;;;;;;;6255562;28;20053;-81
2022/07/04 04:32:48;;;;;;;3.03;1.60;;;;;;;;;;6259524;28;20046;-82
2022/07/04 04:35:49;;;;;;;2.83;1.60;;;;;;;;;;6259055;28;20060;-82
2022/07/04 04:38:52;;;;;;;5.95;1.95;;;;;;;;;;6252437;28;20049;-82
2022/07/04 04:41:54;;;;;;;;;;;;;;;;;;6255862;28;20087;-82
2022/07/04 04:44:55;;;;;;;3.85;1.75;;;;;;;;;;6252069;28;19925;-81
2022/07/04 04:47:57;;;;;;;3.17;1.98;;;;;;;;;;6254411;28;20061;-82
2022/07/04 04:50:59;;;;;;;2.75;1.75;;;;;;;;;;6252773;28;20060;-81
2022/07/04 04:54:02;;;;;;;2.45;1.60;;;;;;;;;;6259754;28;20240;-81
2022/07/04 04:57:04;;;;;;;;;;;;;;;;;;6258718;28;20053;-83
2022/07/04 05:00:06;;;;;;;2.92;2.10;;;;;;;;;;6257418;28;20104;-81
2022/07/04 05:03:08;;;;;;;3.38;2.13;;;;;;;;;;6251189;28;20268;-81
2022/07/04 05:06:10;;;;;;;2.90;1.73;;;;;;;;;;6254899;28;20283;-81
2022/07/04 05:09:13;;;;;;;3.53;1.87;;;;;;;;;;6255095;28;20340;-81
2022/07/04 05:12:16;;;;;;;;;;;;;;;;;;6253742;28;20136;-83
2022/07/04 05:15:18;;;;;;;3.85;1.70;;;;;;;;;;6252285;28;20263;-83
2022/07/04 05:18:19;;;;;;;3.88;1.60;;;;;;;;;;6251108;28;20304;-82
2022/07/04 05:21:21;;;;;;;6.50;1.70;;;;;;;;;;6253429;28;20325;-80
2022/07/04 05:24:24;;;;;;;2.85;1.80;;;;;;;;;;6252283;28;20067;-80
2022/07/04 05:27:26;;;;;;;3.67;1.77;;;;;;;;;;6253429;28;20041;-82
2022/07/04 05:30:28;;;;;;;2.95;1.85;;;;;;;;;;6250811;28;20046;-81
2022/07/04 05:33:29;;;;;;;4.40;1.80;;;;;;;;;;6253369;28;20048;-82
2022/07/04 05:36:31;;;;;;;6.25;1.90;;;;;;;;;;6256397;28;20332;-82
2022/07/04 05:39:34;;;;;;;4.22;1.80;;;;;;;;;;6251116;28;20042;-82
2022/07/04 05:42:36;;;;;;;6.13;1.95;;;;;;;;;;6253934;28;20236;-84
2022/07/04 05:45:38;;;;;;;4.07;1.98;;;;;;;;;;6251918;28;20352;-82
2022/07/04 05:48:39;;;;;;;3.42;2.00;;;;;;;;;;6249499;28;20136;-82
2022/07/04 05:51:41;;;;;;;6.03;2.00;;;;;;;;;;6252698;28;20068;-83
2022/07/04 05:54:44;;;;;;;3.10;1.90;;;;;;;;;;6257103;28;20049;-82
2022/07/04 05:57:46;;;;;;;;;;;;;;;;;;6257354;28;20045;-82
2022/07/04 06:00:47;;;;;;;4.50;2.30;;;;;;;;;;6256901;28;19925;-82
2022/07/04 06:03:49;;;;;;;3.13;2.20;;;;;;;;;;6251527;28;20347;-82
2022/07/04 06:06:51;;;;;;;4.22;2.28;;;;;;;;;;6254196;28;20053;-83
2022/07/04 06:09:54;;;;;;;4.47;2.15;;;;;;;;;;6256149;28;20329;-80
2022/07/04 06:12:55;;;;;;;;;;;;;;;;;;6254103;28;20283;-81
2022/07/04 06:15:57;;;;;;;4.82;2.20;;;;;;;;;;6247454;28;19924;-82
2022/07/04 06:18:59;;;;;;;5.28;2.20;;;;;;;;;;6248826;28;20041;-81
2022/07/04 06:22:00;;;;;;;11.73;2.70;;;;;;;;;;6256012;28;20053;-82
2022/07/04 06:25:04;;;;;;;7.03;2.17;;;;;;;;;;6251133;28;20080;-81
2022/07/04 06:28:06;;;;;;;7.90;2.40;;;;;;;;;;6251261;28;20050;-81
2022/07/04 06:31:07;;;;;;;7.80;2.63;;;;;;;;;;6254954;28;20111;-81
2022/07/04 06:37:28;;;;;;;3.92;2.30;;;;;;;;;;6248496;28;20049;-82
2022/07/04 06:40:32;;;;;;;6.78;2.50;;;;;;;;;;6251337;28;20381;-80
2022/07/04 06:43:34;;;;;;;6.60;2.50;;;;;;;;;;6254229;28;20888;-81
2022/07/04 06:46:35;;;;;;;6.45;2.50;;;;;;;;;;6253022;28;20064;-82
2022/07/04 06:49:37;;;;;;;8.27;2.85;;;;;;;;;;6254569;28;20348;-79
2022/07/04 06:52:39;;;;;;;5.72;2.42;;;;;;;;;;6249997;28;20062;-78
2022/07/04 06:55:42;;;;;;;6.13;2.50;;;;;;;;;;6251185;28;20050;-81
2022/07/04 06:58:44;;;;;;;4.30;2.45;;;;;;;;;;6251678;28;20282;-81
2022/07/04 07:01:46;;;;;;;5.35;2.75;;;;;;;;;;6249570;28;20054;-80
2022/07/04 07:04:47;;;;;;;5.90;2.30;;;;;;;;;;6247197;28;20049;-80
2022/07/04 07:07:49;;;;;;;4.70;2.60;;;;;;;;;;6253965;28;20053;-81
2022/07/04 07:10:52;;;;;;;5.88;2.63;;;;;;;;;;6252131;28;20049;-81
2022/07/04 07:13:53;;;;;;;;;;;;;;;;;;6250087;28;20053;-81
2022/07/04 07:16:55;;;;;;;4.28;2.03;;;;;;;;;;6243602;28;20266;-82
2022/07/04 07:19:57;;;;;;;3.95;2.22;;;;;;;;;;6258053;28;20056;-80
2022/07/04 07:22:58;;;;;;;3.88;2.22;;;;;;;;;;6254503;28;20049;-82
2022/07/04 07:26:01;;;;;;;8.63;2.38;;;;;;;;;;6260493;28;20045;-83
2022/07/04 07:29:03;;;;;;;;;;;;;;;;;;6258199;28;20045;-81
2022/07/04 07:32:05;;;;;;;6.00;2.50;;;;;;;;;;6256983;28;19959;-81
2022/07/04 07:35:08;;;;;;;8.15;2.70;;;;;;;;;;6260543;28;20076;-82
2022/07/04 07:38:09;;;;;;;6.18;2.63;;;;;;;;;;6257103;28;20155;-80
2022/07/04 07:41:12;;;;;;;4.13;2.40;;;;;;;;;;6254599;28;20059;-82
2022/07/04 07:44:14;;;;;;;5.82;2.50;;;;;;;;;;6258027;28;20049;-82
2022/07/04 07:47:16;;;;;;;3.90;2.70;;;;;;;;;;6256731;28;20056;-82
2022/07/04 07:50:18;;;;;;;5.95;2.72;;;;;;;;;;6255619;28;20096;-81
2022/07/04 07:53:20;;;;;;;6.10;2.57;;;;;;;;;;6250745;28;20045;-82
2022/07/04 07:56:23;;;;;;;4.60;2.70;;;;;;;;;;6254430;28;20057;-82
2022/07/04 07:59:25;;;;;;;7.18;2.90;;;;;;;;;;6257698;28;20057;-82
2022/07/04 08:05:43;;;;;;;6.60;2.45;;;;;;;;;;6254467;28;20095;-81
2022/07/04 08:08:45;;;;;;;5.38;2.70;;;;;;;;;;6253440;28;20092;-81
2022/07/04 08:11:48;;;;;;;4.57;2.93;;;;;;;;;;6253508;28;20038;-81
2022/07/04 08:14:49;;;;;;;9.60;2.60;;;;;;;;;;6253370;28;20057;-81
2022/07/04 08:17:53;;;;;;;4.80;3.05;;;;;;;;;;6254204;28;20056;-82
2022/07/04 08:20:54;;;;;;;3.92;2.22;;;;;;;;;;6254702;28;20115;-83
2022/07/04 08:23:56;;;;;;;8.40;3.40;;;;;;;;;;6258684;28;20095;-82
2022/07/04 08:26:59;;;;;;;6.60;2.80;;;;;;;;;;6253913;28;20059;-81
2022/07/04 08:30:01;;;;;;;6.40;3.10;;;;;;;;;;6254436;28;20052;-82
2022/07/04 08:33:03;;;;;;;7.13;3.17;;;;;;;;;;6254928;28;20057;-82
2022/07/04 08:36:05;;;;;;;6.60;3.15;;;;;;;;;;6256477;28;20100;-83
2022/07/04 08:39:06;;;;;;;7.97;3.42;;;;;;;;;;6255714;28;20053;-82
2022/07/04 08:42:14;;;;;;;5.07;3.20;;;;;;;;;;6253577;28;20398;-82
2022/07/04 08:45:17;;;;;;;5.43;3.30;;;;;;;;;;6255898;28;20207;-83
2022/07/04 08:48:22;;;;;;;8.38;3.20;;;;;;;;;;6257956;28;20096;-80
2022/07/04 08:51:31;;;;;;;7.68;2.72;;;;;;;;;;6253389;28;20251;-82
2022/07/04 09:01:15;;;;;;;7.30;2.92;;;;;;;;;;6258095;28;20054;-81
2022/07/04 09:04:17;;;;;;;8.38;3.08;;;;;;;;;;6260311;28;20053;-81
2022/07/04 09:07:19;;;;;;;6.82;2.72;;;;;;;;;;6257915;28;20041;-82
2022/07/04 09:10:21;;;;;;;4.22;2.65;;;;;;;;;;6255358;28;20053;-81
2022/07/04 09:13:24;;;;;;;7.93;2.95;;;;;;;;;;6255961;28;20325;-82
2022/07/04 09:16:26;;;;;;;6.72;2.78;;;;;;;;;;6252074;28;20054;-82
2022/07/04 09:19:28;;;;;;;4.50;2.70;;;;;;;;;;6258073;28;20049;-82
2022/07/04 09:22:29;;;;;;;7.47;3.17;;;;;;;;;;6256166;28;20116;-82
2022/07/04 09:25:32;;;;;;;5.43;2.78;;;;;;;;;;6252805;28;20049;-81
2022/07/04 09:28:35;;;;;;;6.68;2.55;;;;;;;;;;6252654;28;20061;-81
2022/07/04 09:31:38;;;;;;;7.75;2.90;;;;;;;;;;6254999;28;20049;-83
2022/07/04 09:34:40;;;;;;;;;;;;;;;;;;6253966;28;20051;-82
2022/07/04 09:37:45;;;;;;;6.22;2.60;;;;;;;;;;6259200;28;19955;-83
2022/07/04 09:44:14;;;;;;;4.70;2.83;;;;;;;;;;6256148;28;20049;-82
2022/07/04 09:47:23;;;;;;;5.20;2.25;;;;;;;;;;6249385;28;20046;-82
2022/07/04 09:50:26;;;;;;;3.10;2.00;;;;;;;;;;6255197;28;20057;-81
2022/07/04 09:53:28;;;;;;;4.93;1.90;;;;;;;;;;6255228;28;20045;-81
2022/07/04 09:56:40;;;;;;;4.57;2.05;;;;;;;;;;6254353;28;20225;-81
2022/07/04 09:59:43;;;;;;;4.25;2.40;;;;;;;;;;6255120;28;20064;-82
2022/07/04 10:02:45;;;;;;;2.53;2.25;;;;;;;;;;6251757;28;20096;-82
2022/07/04 10:05:47;;;;;;;4.05;2.30;;;;;;;;;;6248557;28;20053;-81
2022/07/04 10:08:48;;;;;;;4.53;2.03;;;;;;;;;;6254044;28;20100;-80
2022/07/04 10:11:50;;;;;;;6.57;2.35;;;;;;;;;;6252619;28;20057;-81
2022/07/04 10:14:54;;;;;;;3.35;2.28;;;;;;;;;;6251736;28;20053;-82
2022/07/04 10:17:56;;;;;;;12.45;2.63;;;;;;;;;;6255793;28;20406;-81
2022/07/04 10:20:58;;;;;;;;;;;;;;;;;;6250858;28;20328;-81
2022/07/04 10:24:00;;;;;;;5.93;2.90;;;;;;;;;;6249955;28;19917;-81
2022/07/04 10:27:01;;;;;;;4.57;2.70;;;;;;;;;;6254421;28;20045;-81
2022/07/04 10:30:07;;;;;;;6.68;2.80;;;;;;;;;;6252539;28;20068;-81
2022/07/04 10:33:10;;;;;;;5.80;2.75;;;;;;;;;;6255499;28;20048;-82
2022/07/04 10:36:16;;;;;;;3.70;2.40;;;;;;;;;;6256111;28;20386;-82
2022/07/04 10:39:22;;;;;;;5.18;2.30;;;;;;;;;;6254300;28;20064;-79
2022/07/04 10:42:25;;;;;;;5.18;2.13;;;;;;;;;;6250026;28;20085;-81
2022/07/04 10:45:34;;;;;;;4.00;2.22;;;;;;;;;;6249030;28;20049;-81
2022/07/04 10:48:36;;;;;;;3.50;2.30;;;;;;;;;;6250321;28;20241;-81
2022/07/04 10:51:43;;;;;;;2.47;2.28;;;;;;;;;;6252799;28;20099;-81
2022/07/04 10:54:46;;;;;;;5.63;2.20;;;;;;;;;;6252404;28;20056;-81
2022/07/04 10:57:47;;;;;;;3.25;2.10;;;;;;;;;;6255096;28;20050;-82
2022/07/04 11:01:12;;;;;;;5.22;2.38;;;;;;;;;;6252133;28;20050;-82
2022/07/04 11:04:13;;;;;;;7.72;2.45;;;;;;;;;;6247983;28;20053;-79
2022/07/04 11:07:15;;;;;;;;;;;;;;;;;;6253234;28;20053;-78
2022/07/04 11:10:26;;;;;;;5.00;2.38;;;;;;;;;;6252148;28;19925;-79
2022/07/04 11:13:27;;;;;;;3.55;2.40;;;;;;;;;;6246266;28;20045;-75
2022/07/04 11:16:53;;;;;;;8.60;6.68;;;;;;;;;;6234629;28;20313;-76
2022/07/04 11:20:00;;;;;;;9.88;7.00;;;;;;;;;;6240065;28;20112;-77
2022/07/04 11:23:05;;;;;;;3.22;2.60;;;;;;;;;;6235507;28;20049;-78
2022/07/04 11:26:06;;;;;;;4.57;2.05;;;;;;;;;;6236577;28;20059;-77
2022/07/04 11:29:08;;;;;;;;;;;;;;;;;;6239994;28;20059;-79
2022/07/04 11:32:11;;;;;;;2.67;2.22;;;;;;;;;;6238244;28;19917;-79
2022/07/04 11:35:13;;;;;;;6.43;2.30;;;;;;;;;;6236246;28;20057;-79
2022/07/04 11:38:15;;;;;;;3.65;2.30;;;;;;;;;;6257889;28;20332;-82
2022/07/04 11:45:04;;;;;;;5.38;2.60;;;;;;;;;;6228763;28;20144;-78
2022/07/04 11:48:07;;;;;;;5.68;2.75;;;;;;;;;;6234640;28;20050;-78
2022/07/04 11:51:17;;;;;;;3.50;2.30;;;;;;;;;;6250673;28;20049;-79
2022/07/04 11:54:19;;;;;;;5.57;2.30;;;;;;;;;;6251043;28;20132;-77
2022/07/04 11:57:23;;;;;;;3.50;2.45;;;;;;;;;;6258714;28;20121;-76
2022/07/04 12:00:27;;;;;;;2.85;2.33;;;;;;;;;;6256506;28;20061;-79
2022/07/04 12:03:30;;;;;;;3.97;2.13;;;;;;;;;;6254563;28;20060;-77
2022/07/04 12:06:32;;;;;;;4.28;2.30;;;;;;;;;;6256412;28;20128;-76
2022/07/04 12:09:33;;;;;;;;;;;;;;;;;;6262727;28;20045;-79
2022/07/04 12:12:35;;;;;;;5.70;2.53;;;;;;;;;;6257054;28;20276;-80
2022/07/04 12:15:38;;;;;;;3.72;2.65;;;;;;;;;;6259877;28;20052;-78
2022/07/04 12:18:41;;;;;;;5.28;2.58;;;;;;;;;;6253450;28;20053;-75
2022/07/04 12:21:44;;;;;;;5.57;2.60;;;;;;;;;;6262389;28;20057;-75
2022/07/04 12:24:45;;;;;;;5.30;3.13;;;;;;;;;;6260846;28;20040;-76
2022/07/04 12:27:52;;;;;;;7.57;2.75;;;;;;;;;;6260893;28;20111;-75
2022/07/04 12:30:55;;;;;;;6.47;3.08;;;;;;;;;;6238920;28;20088;-82
2022/07/04 12:33:58;;;;;;;5.68;2.80;;;;;;;;;;6244000;28;20058;-74
2022/07/04 12:37:00;;;;;;;11.65;3.40;;;;;;;;;;6251794;28;20049;-75
2022/07/04 12:40:08;;;;;;;5.25;2.90;;;;;;;;;;6253046;28;20049;-84
2022/07/04 12:43:09;;;;;;;5.70;3.22;;;;;;;;;;6253849;28;20495;-75
2022/07/04 12:46:12;;;;;;;4.68;2.88;;;;;;;;;;6256427;28;20049;-78
2022/07/04 12:49:17;;;;;;;5.65;3.13;;;;;;;;;;6257117;28;20049;-85
2022/07/04 12:52:19;;;;;;;4.80;2.97;;;;;;;;;;6255790;28;20053;-75
2022/07/04 12:55:20;;;;;;;;;;;;;;;;;;6252558;28;20041;-76
2022/07/04 12:58:22;;;;;;;3.85;3.17;;;;;;;;;;6253164;28;19925;-78
2022/07/04 13:01:23;;;;;;;;;;;;;;;;;;6253557;28;20138;-77
2022/07/04 13:04:27;;;;;;;6.57;2.90;;;;;;;;;;6258731;28;19928;-77
2022/07/04 13:07:28;;;;;;;8.68;3.22;;;;;;;;;;6259086;28;20263;-86
2022/07/04 13:10:32;;;;;;;8.85;3.40;;;;;;;;;;6255949;28;20045;-83
2022/07/04 13:13:33;;;;;;;7.75;3.50;;;;;;;;;;6251378;28;20183;-86
2022/07/04 13:16:35;;;;;;;;;;;;;;;;;;6254955;28;20096;-83
2022/07/04 13:19:38;;;;;;;7.00;3.10;;;;;;;;;;6254751;28;20081;-85
2022/07/04 13:22:39;;;;;;;4.00;3.30;;;;;;;;;;6258793;28;20111;-85
2022/07/04 13:25:41;;;;;;;4.97;3.20;;;;;;;;;;6259130;28;20045;-83
2022/07/04 13:28:43;;;;;;;41.55;35.75;;;;;;;;;;6257573;28;20046;-86
2022/07/04 13:31:44;;;;;;;37.20;30.10;;;;;;;;;;6262102;28;20096;-84
2022/07/04 13:34:47;;;;;;;;;;;;;;;;;;6256361;28;20041;-85
2022/07/04 13:37:50;;;;;;;29.17;21.48;;;;;;;;;;6260128;28;20251;-85
2022/07/04 13:40:53;;;;;;;9.60;7.35;;;;;;;;;;6258716;28;20049;-85
2022/07/04 13:43:56;;;;;;;34.42;27.65;;;;;;;;;;6260500;28;20076;-82
2022/07/04 13:46:58;;;;;;;38.83;27.27;;;;;;;;;;6255656;28;20049;-77
2022/07/04 13:50:01;;;;;;;10.10;7.57;;;;;;;;;;6256297;28;20100;-83
2022/07/04 13:53:03;;;;;;;29.67;21.63;;;;;;;;;;6258931;28;20291;-83
2022/07/04 13:56:05;;;;;;;16.27;11.60;;;;;;;;;;6257420;28;20072;-83
2022/07/04 13:59:06;;;;;;;11.27;8.50;;;;;;;;;;6257641;28;20046;-83
2022/07/04 14:02:08;;;;;;;12.18;9.00;;;;;;;;;;6259360;28;20053;-83
2022/07/04 14:05:11;;;;;;;8.77;3.97;;;;;;;;;;6258485;28;20049;-86
2022/07/04 14:08:13;;;;;;;4.28;3.08;;;;;;;;;;6259279;28;20060;-86
2022/07/04 14:11:14;;;;;;;7.80;3.33;;;;;;;;;;6253995;28;20046;-84
2022/07/04 14:14:16;;;;;;;;;;;;;;;;;;6252800;28;20103;-84
2022/07/04 14:17:17;;;;;;;6.22;3.00;;;;;;;;;;6250015;28;19955;-85
2022/07/04 14:20:20;;;;;;;6.55;2.63;;;;;;;;;;6251386;28;20057;-82
2022/07/04 14:26:38;;;;;;;5.40;2.90;;;;;;;;;;6252540;28;20052;-85
2022/07/04 14:29:40;;;;;;;;;;;;;;;;;;6256774;28;20053;-86
2022/07/04 14:32:42;;;;;;;7.25;2.35;;;;;;;;;;6257494;28;19948;-85
2022/07/04 14:35:45;;;;;;;6.28;2.20;;;;;;;;;;6255077;28;20048;-83
2022/07/04 14:38:46;;;;;;;8.82;2.10;;;;;;;;;;6256596;28;20284;-84
2022/07/04 14:41:49;;;;;;;8.85;2.08;;;;;;;;;;6254920;28;20073;-87
2022/07/04 14:44:51;;;;;;;10.20;2.22;;;;;;;;;;6251995;28;20414;-84
2022/07/04 14:47:52;;;;;;;3.67;2.17;;;;;;;;;;6252432;28;20095;-85
2022/07/04 14:50:55;;;;;;;3.80;2.22;;;;;;;;;;6254996;28;20084;-84
2022/07/04 14:53:57;;;;;;;9.07;2.45;;;;;;;;;;6256761;28;20071;-87
2022/07/04 14:56:59;;;;;;;7.90;2.03;;;;;;;;;;6254466;28;20057;-84
2022/07/04 15:00:01;;;;;;;3.38;1.80;;;;;;;;;;6250164;28;20053;-85
2022/07/04 15:03:02;;;;;;;5.07;2.15;;;;;;;;;;6252727;28;20053;-82
2022/07/04 15:06:06;;;;;;;3.67;2.30;;;;;;;;;;6249979;28;20097;-81
2022/07/04 15:09:08;;;;;;;7.22;1.95;;;;;;;;;;6252738;28;20049;-88
2022/07/04 15:12:09;;;;;;;14.23;3.58;;;;;;;;;;6254070;28;20045;-84
2022/07/04 15:15:12;;;;;;;12.23;5.95;;;;;;;;;;6253843;28;20121;-85
2022/07/04 15:18:13;;;;;;;5.85;3.80;;;;;;;;;;6250467;28;20081;-83
2022/07/04 15:24:36;;;;;;;5.80;2.08;;;;;;;;;;6253984;28;20467;-83
2022/07/04 15:27:37;;;;;;;4.20;2.05;;;;;;;;;;6258312;28;20054;-82
2022/07/04 15:30:39;;;;;;;5.68;2.22;;;;;;;;;;6251920;28;20057;-83
2022/07/04 15:33:41;;;;;;;5.30;2.58;;;;;;;;;;6251943;28;20049;-87
2022/07/04 15:36:44;;;;;;;5.05;2.10;;;;;;;;;;6252756;28;20053;-86
2022/07/04 15:39:46;;;;;;;4.63;2.22;;;;;;;;;;6256021;28;20045;-87
2022/07/04 15:42:47;;;;;;;5.93;2.75;;;;;;;;;;6254616;28;20259;-86
2022/07/04 15:45:49;;;;;;;5.03;2.08;;;;;;;;;;6257634;28;20100;-86
2022/07/04 15:48:50;;;;;;;4.03;3.00;;;;;;;;;;6256931;28;20103;-81
2022/07/04 15:51:54;;;;;;;9.13;2.85;;;;;;;;;;6257477;28;20472;-79
2022/07/04 15:54:55;;;;;;;6.95;2.80;;;;;;;;;;6259127;28;20253;-84
2022/07/04 15:57:57;;;;;;;10.98;4.50;;;;;;;;;;6256754;28;20052;-84
2022/07/04 16:00:59;;;;;;;4.67;2.60;;;;;;;;;;6259478;28;20057;-91
2022/07/04 16:04:01;;;;;;;6.03;2.53;;;;;;;;;;6256938;28;20049;-81
2022/07/04 16:07:04;;;;;;;8.07;2.83;;;;;;;;;;6255718;28;20057;-79
2022/07/04 16:10:07;;;;;;;4.93;2.58;;;;;;;;;;6257143;28;20061;-81
2022/07/04 16:13:09;;;;;;;6.00;2.60;;;;;;;;;;6251633;28;20104;-80
2022/07/04 16:16:11;;;;;;;8.65;2.50;;;;;;;;;;6254141;28;20050;-81
2022/07/04 16:19:12;;;;;;;12.77;2.30;;;;;;;;;;6254979;28;20053;-84
2022/07/04 16:22:15;;;;;;;5.15;2.45;;;;;;;;;;6258550;28;20104;-80
2022/07/04 16:25:18;;;;;;;4.78;2.72;;;;;;;;;;6257500;28;20111;-82
2022/07/04 16:28:19;;;;;;;6.05;2.63;;;;;;;;;;6258095;28;20057;-85
2022/07/04 16:31:21;;;;;;;7.00;2.33;;;;;;;;;;6262240;28;20041;-78
2022/07/04 16:34:23;;;;;;;31.10;3.43;;;;;;;;;;6250866;28;20138;-76
2022/07/04 16:37:26;;;;;;;26.02;3.13;;;;;;;;;;6260193;28;20504;-79
2022/07/04 16:40:28;;;;;;;29.25;3.20;;;;;;;;;;6265322;28;20041;-77
2022/07/04 16:43:29;;;;;;;23.50;3.20;;;;;;;;;;6258438;28;20366;-75
2022/07/04 16:46:31;;;;;;;17.02;3.40;;;;;;;;;;6256560;28;20049;-75
2022/07/04 16:49:33;;;;;;;17.77;2.58;;;;;;;;;;6259886;28;20706;-76
2022/07/04 16:52:36;;;;;;;20.88;3.35;;;;;;;;;;6258554;28;20057;-76
2022/07/04 16:55:37;;;;;;;11.80;1.45;;;;;;;;;;6260976;28;20042;-85
2022/07/04 16:58:39;;;;;;;61.30;24.50;;;;;;;;;;6258058;28;20115;-83
2022/07/04 17:01:41;;;;;;;5.25;2.05;;;;;;;;;;6258739;28;20054;-80
2022/07/04 17:04:42;;;;;;;12.13;4.55;;;;;;;;;;6256475;28;20051;-76
2022/07/04 17:07:46;;;;;;;11.93;2.80;;;;;;;;;;6261306;28;20049;-78
2022/07/04 17:10:47;;;;;;;4.68;1.50;;;;;;;;;;6249055;28;20247;-80
2022/07/04 17:13:49;;;;;;;4.85;2.53;;;;;;;;;;6259052;28;20324;-81
2022/07/04 17:16:51;;;;;;;9.00;2.67;;;;;;;;;;6254778;28;20045;-85
2022/07/04 17:19:54;;;;;;;7.65;2.05;;;;;;;;;;6255378;28;20068;-87
2022/07/04 17:22:57;;;;;;;7.45;1.92;;;;;;;;;;6253511;28;20049;-85
2022/07/04 17:25:59;;;;;;;5.70;1.70;;;;;;;;;;6258280;28;20252;-86
2022/07/04 17:29:00;;;;;;;4.72;1.73;;;;;;;;;;6258315;28;20060;-87
2022/07/04 17:32:02;;;;;;;7.28;1.40;;;;;;;;;;6256344;28;20041;-85
2022/07/04 17:35:04;;;;;;;7.85;1.73;;;;;;;;;;6257981;28;20048;-85
2022/07/04 17:38:07;;;;;;;7.15;1.77;;;;;;;;;;6251062;28;20349;-84
2022/07/04 17:44:28;;;;;;;4.13;1.60;;;;;;;;;;6258073;28;20049;-85
2022/07/04 17:47:29;;;;;;;6.93;1.70;;;;;;;;;;6258680;28;20063;-78
2022/07/04 17:50:31;;;;;;;7.65;1.92;;;;;;;;;;6255959;28;20279;-82
2022/07/04 17:53:34;;;;;;;13.00;2.28;;;;;;;;;;6252741;28;20247;-73
2022/07/04 17:56:36;;;;;;;9.77;2.50;;;;;;;;;;6256132;28;20049;-73
2022/07/04 17:59:37;;;;;;;9.25;2.20;;;;;;;;;;6255267;28;20045;-74
2022/07/04 18:02:39;;;;;;;6.25;2.05;;;;;;;;;;6250459;28;20217;-78
2022/07/04 18:05:41;;;;;;;10.75;2.75;;;;;;;;;;6258476;28;20048;-76
2022/07/04 18:08:44;;;;;;;9.73;2.67;;;;;;;;;;6254002;28;21300;-77
2022/07/04 18:11:46;;;;;;;11.57;2.97;;;;;;;;;;6247857;28;20034;-77
2022/07/04 18:14:48;;;;;;;5.65;2.88;;;;;;;;;;6254755;28;20057;-83
2022/07/04 18:17:50;;;;;;;7.15;2.78;;;;;;;;;;6252285;28;20056;-84
2022/07/04 18:20:51;;;;;;;6.70;2.90;;;;;;;;;;6249378;28;20268;-78
2022/07/04 18:23:54;;;;;;;6.15;2.97;;;;;;;;;;6256383;28;20061;-78
2022/07/04 18:26:56;;;;;;;;;;;;;;;;;;6256944;28;20268;-82
2022/07/04 18:29:58;;;;;;;5.22;2.80;;;;;;;;;;6255646;28;19917;-83
2022/07/04 18:32:59;;;;;;;5.07;2.80;;;;;;;;;;6255449;28;20052;-85
2022/07/04 18:36:01;;;;;;;4.93;2.60;;;;;;;;;;6254485;28;20355;-87
2022/07/04 18:39:05;;;;;;;8.83;2.53;;;;;;;;;;6252324;28;20072;-88
2022/07/04 18:45:25;;;;;;;4.85;2.40;;;;;;;;;;6253440;28;20049;-88
2022/07/04 18:48:28;;;;;;;6.82;2.40;;;;;;;;;;6253768;28;20060;-85
2022/07/04 18:51:32;;;;;;;3.40;2.20;;;;;;;;;;6257731;28;20344;-87
2022/07/04 18:54:35;;;;;;;4.30;2.13;;;;;;;;;;6255196;28;20045;-89
2022/07/04 18:57:37;;;;;;;5.00;2.10;;;;;;;;;;6257320;28;20049;-82